sensor_id;sensor_type;location;lat;lon;timestamp;pressure;altitude;pressure_sealevel;temperature;humidity
46638;BME280;32365;46.938;7.390;2022-08-25T07:29:47;95303.06;;;20.13;63.82
46638;BME280;32365;46.938;7.390;2022-08-25T07:32:14;95300.13;;;20.01;63.02
46638;BME280;32365;46.938;7.390;2022-08-25T07:34:41;95297.94;;;20.64;60.03
46638;BME280;32365;46.938;7.390;2022-08-25T07:37:25;95304.44;;;20.67;60.19
46638;BME280;32365;46.938;7.390;2022-08-25T07:39:52;95309.94;;;19.95;62.85
46638;BME280;32365;46.938;7.390;2022-08-25T07:42:19;95306.00;;;20.26;60.64
46638;BME280;32365;46.938;7.390;2022-08-25T07:44:47;95303.88;;;20.42;60.70
46638;BME280;32365;46.938;7.390;2022-08-25T07:47:14;95309.78;;;21.03;59.01
46638;BME280;32365;46.938;7.390;2022-08-25T07:49:41;95309.47;;;21.42;57.82
46638;BME280;32365;46.938;7.390;2022-08-25T07:52:08;95308.34;;;21.57;57.72
46638;BME280;32365;46.938;7.390;2022-08-25T07:54:35;95302.22;;;21.61;56.48
46638;BME280;32365;46.938;7.390;2022-08-25T07:57:02;95304.19;;;22.10;56.05
46638;BME280;32365;46.938;7.390;2022-08-25T07:59:29;95303.34;;;22.72;53.70
46638;BME280;32365;46.938;7.390;2022-08-25T08:01:58;95304.81;;;23.31;51.33
46638;BME280;32365;46.938;7.390;2022-08-25T08:04:25;95308.31;;;24.44;49.06
46638;BME280;32365;46.938;7.390;2022-08-25T08:06:52;95307.13;;;25.02;47.96
46638;BME280;32365;46.938;7.390;2022-08-25T08:09:18;95312.00;;;25.42;46.47
46638;BME280;32365;46.938;7.390;2022-08-25T08:11:45;95312.03;;;25.55;45.71
46638;BME280;32365;46.938;7.390;2022-08-25T08:14:12;95310.50;;;26.00;45.15
46638;BME280;32365;46.938;7.390;2022-08-25T08:16:40;95319.97;;;26.22;44.91
46638;BME280;32365;46.938;7.390;2022-08-25T08:19:08;95318.09;;;27.38;41.62
46638;BME280;32365;46.938;7.390;2022-08-25T08:21:35;95314.75;;;27.98;40.66
46638;BME280;32365;46.938;7.390;2022-08-25T08:24:03;95311.19;;;28.54;39.30
46638;BME280;32365;46.938;7.390;2022-08-25T08:26:30;95313.81;;;29.41;37.90
46638;BME280;32365;46.938;7.390;2022-08-25T08:28:57;95315.94;;;31.14;34.47
46638;BME280;32365;46.938;7.390;2022-08-25T08:31:24;95316.41;;;30.20;35.79
46638;BME280;32365;46.938;7.390;2022-08-25T08:33:54;95310.84;;;29.07;37.30
46638;BME280;32365;46.938;7.390;2022-08-25T08:36:23;95309.16;;;29.77;36.56
46638;BME280;32365;46.938;7.390;2022-08-25T08:38:50;95303.88;;;29.38;38.46
46638;BME280;32365;46.938;7.390;2022-08-25T08:41:40;95308.59;;;29.09;38.49
46638;BME280;32365;46.938;7.390;2022-08-25T08:44:36;95302.59;;;30.14;37.14
46638;BME280;32365;46.938;7.390;2022-08-25T08:47:10;95311.09;;;28.66;39.36
46638;BME280;32365;46.938;7.390;2022-08-25T08:49:48;95301.28;;;29.42;39.40
46638;BME280;32365;46.938;7.390;2022-08-25T08:52:23;95304.31;;;29.40;39.41
46638;BME280;32365;46.938;7.390;2022-08-25T08:55:02;95305.41;;;30.48;36.41
46638;BME280;32365;46.938;7.390;2022-08-25T08:57:35;95302.16;;;30.59;35.41
46638;BME280;32365;46.938;7.390;2022-08-25T09:00:06;95301.50;;;30.96;36.64
46638;BME280;32365;46.938;7.390;2022-08-25T09:02:37;95304.16;;;29.53;38.97
46638;BME280;32365;46.938;7.390;2022-08-25T09:05:10;95301.28;;;30.78;35.56
46638;BME280;32365;46.938;7.390;2022-08-25T09:07:43;95296.41;;;29.67;38.58
46638;BME280;32365;46.938;7.390;2022-08-25T09:10:12;95297.38;;;29.98;36.26
46638;BME280;32365;46.938;7.390;2022-08-25T09:12:42;95299.88;;;30.37;37.57
46638;BME280;32365;46.938;7.390;2022-08-25T09:15:16;95297.09;;;31.38;33.06
46638;BME280;32365;46.938;7.390;2022-08-25T09:17:59;95292.47;;;32.55;31.03
46638;BME280;32365;46.938;7.390;2022-08-25T09:20:53;95299.41;;;31.39;34.50
46638;BME280;32365;46.938;7.390;2022-08-25T09:23:33;95293.28;;;32.66;31.91
46638;BME280;32365;46.938;7.390;2022-08-25T09:26:16;95294.34;;;33.14;29.83
46638;BME280;32365;46.938;7.390;2022-08-25T09:28:49;95291.00;;;33.46;28.69
46638;BME280;32365;46.938;7.390;2022-08-25T09:31:22;95290.69;;;33.66;28.45
46638;BME280;32365;46.938;7.390;2022-08-25T09:33:52;95289.59;;;33.85;28.59
46638;BME280;32365;46.938;7.390;2022-08-25T09:36:21;95292.16;;;33.45;30.22
46638;BME280;32365;46.938;7.390;2022-08-25T09:38:49;95289.53;;;33.56;29.76
46638;BME280;32365;46.938;7.390;2022-08-25T09:41:17;95283.09;;;33.93;28.81
46638;BME280;32365;46.938;7.390;2022-08-25T09:44:00;95277.91;;;33.26;29.09
46638;BME280;32365;46.938;7.390;2022-08-25T09:46:28;95274.47;;;33.29;29.25
46638;BME280;32365;46.938;7.390;2022-08-25T09:48:56;95278.09;;;34.57;28.08
46638;BME280;32365;46.938;7.390;2022-08-25T09:51:25;95280.66;;;35.18;26.33
46638;BME280;32365;46.938;7.390;2022-08-25T09:53:55;95278.41;;;34.91;26.96
46638;BME280;32365;46.938;7.390;2022-08-25T09:56:24;95278.69;;;35.26;26.67
46638;BME280;32365;46.938;7.390;2022-08-25T09:58:53;95278.09;;;34.67;27.39
46638;BME280;32365;46.938;7.390;2022-08-25T10:01:24;95274.53;;;35.07;26.71
46638;BME280;32365;46.938;7.390;2022-08-25T10:03:57;95259.31;;;34.49;27.74
46638;BME280;32365;46.938;7.390;2022-08-25T10:06:26;95273.63;;;35.46;26.78
46638;BME280;32365;46.938;7.390;2022-08-25T10:08:58;95259.00;;;32.97;29.92
46638;BME280;32365;46.938;7.390;2022-08-25T10:11:31;95257.41;;;34.21;28.93
46638;BME280;32365;46.938;7.390;2022-08-25T10:13:59;95256.06;;;35.87;26.58
46638;BME280;32365;46.938;7.390;2022-08-25T10:16:27;95256.41;;;36.45;24.83
46638;BME280;32365;46.938;7.390;2022-08-25T10:19:00;95255.28;;;35.16;27.16
46638;BME280;32365;46.938;7.390;2022-08-25T10:21:27;95245.38;;;34.94;27.50
46638;BME280;32365;46.938;7.390;2022-08-25T10:23:53;95250.06;;;35.65;26.47
46638;BME280;32365;46.938;7.390;2022-08-25T10:26:27;95253.81;;;36.31;26.80
46638;BME280;32365;46.938;7.390;2022-08-25T10:29:05;95241.75;;;35.97;25.69
46638;BME280;32365;46.938;7.390;2022-08-25T10:31:37;95244.53;;;33.16;29.35
46638;BME280;32365;46.938;7.390;2022-08-25T10:34:08;95243.53;;;34.62;29.13
46638;BME280;32365;46.938;7.390;2022-08-25T10:36:40;95247.03;;;34.16;30.10
46638;BME280;32365;46.938;7.390;2022-08-25T10:39:11;95233.38;;;35.21;27.01
46638;BME280;32365;46.938;7.390;2022-08-25T10:41:47;95233.97;;;34.50;28.63
46638;BME280;32365;46.938;7.390;2022-08-25T10:44:18;95226.31;;;36.50;24.77
46638;BME280;32365;46.938;7.390;2022-08-25T10:47:15;95234.22;;;37.03;25.26
46638;BME280;32365;46.938;7.390;2022-08-25T10:49:46;95228.06;;;35.03;28.42
46638;BME280;32365;46.938;7.390;2022-08-25T10:52:14;95219.03;;;34.28;29.51
46638;BME280;32365;46.938;7.390;2022-08-25T10:54:45;95226.56;;;36.21;25.01
46638;BME280;32365;46.938;7.390;2022-08-25T10:57:19;95218.19;;;34.67;28.47
46638;BME280;32365;46.938;7.390;2022-08-25T10:59:51;95224.31;;;34.71;28.67
46638;BME280;32365;46.938;7.390;2022-08-25T11:02:42;95211.50;;;35.79;28.35
46638;BME280;32365;46.938;7.390;2022-08-25T11:05:12;95208.31;;;35.91;26.17
46638;BME280;32365;46.938;7.390;2022-08-25T11:07:43;95204.34;;;37.72;24.41
46638;BME280;32365;46.938;7.390;2022-08-25T11:10:12;95206.03;;;36.73;25.82
46638;BME280;32365;46.938;7.390;2022-08-25T11:12:42;95199.34;;;34.71;28.93
46638;BME280;32365;46.938;7.390;2022-08-25T11:15:11;95199.13;;;35.88;27.57
46638;BME280;32365;46.938;7.390;2022-08-25T11:17:39;95195.41;;;35.01;28.25
46638;BME280;32365;46.938;7.390;2022-08-25T11:20:09;95194.09;;;36.74;25.62
46638;BME280;32365;46.938;7.390;2022-08-25T11:22:38;95192.94;;;37.61;24.89
46638;BME280;32365;46.938;7.390;2022-08-25T11:25:10;95187.97;;;37.32;24.62
46638;BME280;32365;46.938;7.390;2022-08-25T11:27:42;95190.00;;;37.24;24.63
46638;BME280;32365;46.938;7.390;2022-08-25T11:30:13;95187.94;;;35.94;26.70
46638;BME280;32365;46.938;7.390;2022-08-25T11:32:43;95171.31;;;36.75;24.44
46638;BME280;32365;46.938;7.390;2022-08-25T11:35:10;95176.09;;;36.99;24.85
46638;BME280;32365;46.938;7.390;2022-08-25T11:37:40;95174.34;;;36.81;24.91
46638;BME280;32365;46.938;7.390;2022-08-25T11:40:13;95179.59;;;36.23;26.36
46638;BME280;32365;46.938;7.390;2022-08-25T11:42:48;95166.34;;;36.74;26.31
46638;BME280;32365;46.938;7.390;2022-08-25T11:45:24;95167.97;;;37.81;24.48
46638;BME280;32365;46.938;7.390;2022-08-25T11:48:00;95174.69;;;39.01;22.90
46638;BME280;32365;46.938;7.390;2022-08-25T11:50:30;95168.94;;;38.78;22.36
46638;BME280;32365;46.938;7.390;2022-08-25T11:52:59;95164.84;;;38.70;22.35
46638;BME280;32365;46.938;7.390;2022-08-25T11:55:28;95165.94;;;38.73;21.81
46638;BME280;32365;46.938;7.390;2022-08-25T11:58:14;95159.28;;;38.57;22.23
46638;BME280;32365;46.938;7.390;2022-08-25T12:00:44;95161.53;;;36.89;24.70
46638;BME280;32365;46.938;7.390;2022-08-25T12:06:14;95159.41;;;37.07;25.11
46638;BME280;32365;46.938;7.390;2022-08-25T12:08:51;95157.75;;;36.13;25.96
46638;BME280;32365;46.938;7.390;2022-08-25T12:14:07;95157.81;;;38.32;23.95
46638;BME280;32365;46.938;7.390;2022-08-25T12:16:42;95156.88;;;36.58;24.97
46638;BME280;32365;46.938;7.390;2022-08-25T12:19:22;95157.81;;;36.44;25.39
46638;BME280;32365;46.938;7.390;2022-08-25T12:21:49;95159.09;;;37.29;24.57
46638;BME280;32365;46.938;7.390;2022-08-25T12:24:17;95152.72;;;37.16;23.57
46638;BME280;32365;46.938;7.390;2022-08-25T12:26:53;95144.69;;;38.11;21.70
46638;BME280;32365;46.938;7.390;2022-08-25T12:29:25;95153.00;;;39.21;21.36
46638;BME280;32365;46.938;7.390;2022-08-25T12:32:03;95152.00;;;39.31;20.99
46638;BME280;32365;46.938;7.390;2022-08-25T12:34:39;95155.13;;;39.46;20.52
46638;BME280;32365;46.938;7.390;2022-08-25T12:37:10;95151.16;;;38.98;21.62
46638;BME280;32365;46.938;7.390;2022-08-25T12:39:41;95141.47;;;37.72;21.67
46638;BME280;32365;46.938;7.390;2022-08-25T12:42:17;95145.34;;;38.18;22.24
46638;BME280;32365;46.938;7.390;2022-08-25T12:44:48;95136.34;;;38.25;21.44
46638;BME280;32365;46.938;7.390;2022-08-25T12:47:34;95128.28;;;37.54;21.19
46638;BME280;32365;46.938;7.390;2022-08-25T12:52:42;95144.06;;;39.04;21.39
46638;BME280;32365;46.938;7.390;2022-08-25T12:55:09;95128.78;;;38.77;20.52
46638;BME280;32365;46.938;7.390;2022-08-25T12:57:39;95125.78;;;37.87;21.61
46638;BME280;32365;46.938;7.390;2022-08-25T13:00:10;95129.66;;;37.86;20.70
46638;BME280;32365;46.938;7.390;2022-08-25T13:05:39;95120.88;;;38.26;21.32
46638;BME280;32365;46.938;7.390;2022-08-25T13:08:18;95130.72;;;38.16;21.92
46638;BME280;32365;46.938;7.390;2022-08-25T13:10:48;95121.88;;;38.36;21.53
46638;BME280;32365;46.938;7.390;2022-08-25T13:13:19;95119.22;;;37.64;22.41
46638;BME280;32365;46.938;7.390;2022-08-25T13:15:56;95116.16;;;37.86;20.94
46638;BME280;32365;46.938;7.390;2022-08-25T13:18:24;95107.34;;;38.26;20.90
46638;BME280;32365;46.938;7.390;2022-08-25T13:20:54;95111.97;;;39.72;19.92
46638;BME280;32365;46.938;7.390;2022-08-25T13:23:26;95108.84;;;37.35;21.22
46638;BME280;32365;46.938;7.390;2022-08-25T13:25:55;95108.88;;;37.08;22.44
46638;BME280;32365;46.938;7.390;2022-08-25T13:28:25;95104.63;;;36.79;24.17
46638;BME280;32365;46.938;7.390;2022-08-25T13:30:56;95105.19;;;37.73;22.19
46638;BME280;32365;46.938;7.390;2022-08-25T13:33:22;95102.00;;;37.58;21.31
46638;BME280;32365;46.938;7.390;2022-08-25T13:35:51;95098.50;;;38.25;21.35
46638;BME280;32365;46.938;7.390;2022-08-25T13:38:40;95095.25;;;38.91;20.52
46638;BME280;32365;46.938;7.390;2022-08-25T13:41:06;95101.34;;;38.18;21.64
46638;BME280;32365;46.938;7.390;2022-08-25T13:43:33;95102.25;;;38.11;22.67
46638;BME280;32365;46.938;7.390;2022-08-25T13:46:00;95093.53;;;36.74;24.18
46638;BME280;32365;46.938;7.390;2022-08-25T13:48:31;95091.22;;;38.42;22.43
46638;BME280;32365;46.938;7.390;2022-08-25T13:51:04;95088.56;;;37.74;22.36
46638;BME280;32365;46.938;7.390;2022-08-25T13:53:32;95087.94;;;38.11;21.99
46638;BME280;32365;46.938;7.390;2022-08-25T13:56:00;95085.78;;;38.83;19.43
46638;BME280;32365;46.938;7.390;2022-08-25T13:58:28;95085.69;;;37.38;23.17
46638;BME280;32365;46.938;7.390;2022-08-25T14:01:00;95077.38;;;37.01;22.98
46638;BME280;32365;46.938;7.390;2022-08-25T14:03:28;95081.28;;;39.29;20.05
46638;BME280;32365;46.938;7.390;2022-08-25T14:06:02;95084.47;;;36.88;21.73
46638;BME280;32365;46.938;7.390;2022-08-25T14:08:31;95076.50;;;39.00;21.09
46638;BME280;32365;46.938;7.390;2022-08-25T14:11:04;95077.44;;;39.10;19.57
46638;BME280;32365;46.938;7.390;2022-08-25T14:13:32;95072.19;;;37.85;20.29
46638;BME280;32365;46.938;7.390;2022-08-25T14:16:05;95078.28;;;38.90;20.14
46638;BME280;32365;46.938;7.390;2022-08-25T14:18:32;95071.19;;;39.30;20.17
46638;BME280;32365;46.938;7.390;2022-08-25T14:20:59;95072.03;;;39.60;19.62
46638;BME280;32365;46.938;7.390;2022-08-25T14:23:30;95079.31;;;39.13;19.76
46638;BME280;32365;46.938;7.390;2022-08-25T14:25:57;95074.13;;;39.02;20.57
46638;BME280;32365;46.938;7.390;2022-08-25T14:28:26;95073.22;;;39.75;20.05
46638;BME280;32365;46.938;7.390;2022-08-25T14:30:53;95068.09;;;40.36;19.19
46638;BME280;32365;46.938;7.390;2022-08-25T14:33:22;95069.75;;;39.25;20.65
46638;BME280;32365;46.938;7.390;2022-08-25T14:35:50;95077.09;;;39.41;21.30
46638;BME280;32365;46.938;7.390;2022-08-25T14:38:17;95065.63;;;37.15;21.92
46638;BME280;32365;46.938;7.390;2022-08-25T14:40:44;95066.31;;;37.91;21.48
46638;BME280;32365;46.938;7.390;2022-08-25T14:43:11;95061.22;;;36.39;23.88
46638;BME280;32365;46.938;7.390;2022-08-25T14:45:41;95063.94;;;36.70;21.83
46638;BME280;32365;46.938;7.390;2022-08-25T14:48:08;95057.69;;;38.40;21.58
46638;BME280;32365;46.938;7.390;2022-08-25T14:50:35;95057.72;;;39.09;20.85
46638;BME280;32365;46.938;7.390;2022-08-25T14:53:02;95056.41;;;37.40;22.89
46638;BME280;32365;46.938;7.390;2022-08-25T14:55:28;95059.91;;;38.98;20.89
46638;BME280;32365;46.938;7.390;2022-08-25T14:57:55;95053.34;;;40.37;18.69
46638;BME280;32365;46.938;7.390;2022-08-25T15:00:21;95051.75;;;40.40;18.53
46638;BME280;32365;46.938;7.390;2022-08-25T15:02:49;95049.28;;;39.40;19.17
46638;BME280;32365;46.938;7.390;2022-08-25T15:05:19;95052.03;;;40.42;17.51
46638;BME280;32365;46.938;7.390;2022-08-25T15:07:46;95045.50;;;37.91;21.90
46638;BME280;32365;46.938;7.390;2022-08-25T15:10:30;95037.66;;;39.73;18.57
46638;BME280;32365;46.938;7.390;2022-08-25T15:12:56;95038.13;;;37.48;24.64
46638;BME280;32365;46.938;7.390;2022-08-25T15:15:23;95036.16;;;38.36;20.59
46638;BME280;32365;46.938;7.390;2022-08-25T15:17:51;95042.91;;;38.04;21.42
46638;BME280;32365;46.938;7.390;2022-08-25T15:20:18;95040.84;;;38.69;18.37
46638;BME280;32365;46.938;7.390;2022-08-25T15:22:44;95037.94;;;38.02;21.34
46638;BME280;32365;46.938;7.390;2022-08-25T15:25:12;95035.91;;;37.86;21.55
46638;BME280;32365;46.938;7.390;2022-08-25T15:27:38;95031.28;;;38.47;20.67
46638;BME280;32365;46.938;7.390;2022-08-25T15:30:06;95030.97;;;38.78;20.27
46638;BME280;32365;46.938;7.390;2022-08-25T15:32:32;95039.81;;;38.06;21.36
46638;BME280;32365;46.938;7.390;2022-08-25T15:35:01;95031.78;;;39.12;19.67
46638;BME280;32365;46.938;7.390;2022-08-25T15:37:27;95030.28;;;39.74;19.13
46638;BME280;32365;46.938;7.390;2022-08-25T15:39:55;95029.94;;;37.75;21.71
46638;BME280;32365;46.938;7.390;2022-08-25T15:42:21;95022.94;;;37.78;21.28
46638;BME280;32365;46.938;7.390;2022-08-25T15:44:49;95026.38;;;37.58;20.90
46638;BME280;32365;46.938;7.390;2022-08-25T15:47:16;95030.19;;;38.61;21.06
46638;BME280;32365;46.938;7.390;2022-08-25T15:49:42;95025.28;;;37.76;22.07
46638;BME280;32365;46.938;7.390;2022-08-25T15:52:11;95033.84;;;38.71;20.11
46638;BME280;32365;46.938;7.390;2022-08-25T15:54:37;95027.38;;;38.48;20.16
46638;BME280;32365;46.938;7.390;2022-08-25T15:57:04;95032.28;;;38.33;20.05
46638;BME280;32365;46.938;7.390;2022-08-25T15:59:30;95026.44;;;36.17;23.21
46638;BME280;32365;46.938;7.390;2022-08-25T16:01:57;95018.75;;;35.81;22.34
46638;BME280;32365;46.938;7.390;2022-08-25T16:04:24;95024.72;;;37.17;21.82
46638;BME280;32365;46.938;7.390;2022-08-25T16:06:51;95025.69;;;37.54;21.11
46638;BME280;32365;46.938;7.390;2022-08-25T16:09:20;95019.00;;;36.60;22.56
46638;BME280;32365;46.938;7.390;2022-08-25T16:11:46;95022.91;;;37.10;22.71
46638;BME280;32365;46.938;7.390;2022-08-25T16:14:13;95023.69;;;37.10;22.67
46638;BME280;32365;46.938;7.390;2022-08-25T16:16:39;95020.41;;;34.70;24.40
46638;BME280;32365;46.938;7.390;2022-08-25T16:19:06;95017.13;;;34.33;25.89
46638;BME280;32365;46.938;7.390;2022-08-25T16:21:33;95018.47;;;33.27;27.11
46638;BME280;32365;46.938;7.390;2022-08-25T16:24:02;95014.94;;;34.10;26.16
46638;BME280;32365;46.938;7.390;2022-08-25T16:26:30;95010.00;;;32.60;28.25
46638;BME280;32365;46.938;7.390;2022-08-25T16:28:57;95011.81;;;32.27;28.66
46638;BME280;32365;46.938;7.390;2022-08-25T16:31:23;95007.50;;;31.37;32.29
46638;BME280;32365;46.938;7.390;2022-08-25T16:33:50;95014.28;;;31.24;31.26
46638;BME280;32365;46.938;7.390;2022-08-25T16:36:18;95003.38;;;31.02;31.96
46638;BME280;32365;46.938;7.390;2022-08-25T16:38:45;95007.91;;;30.94;32.47
46638;BME280;32365;46.938;7.390;2022-08-25T16:41:13;95003.66;;;30.52;32.99
46638;BME280;32365;46.938;7.390;2022-08-25T16:43:41;95006.56;;;30.74;32.35
46638;BME280;32365;46.938;7.390;2022-08-25T16:46:08;95000.19;;;30.14;33.09
46638;BME280;32365;46.938;7.390;2022-08-25T16:48:36;95006.13;;;30.00;34.63
46638;BME280;32365;46.938;7.390;2022-08-25T16:51:04;95006.41;;;29.64;35.82
46638;BME280;32365;46.938;7.390;2022-08-25T16:53:31;95001.84;;;29.14;35.47
46638;BME280;32365;46.938;7.390;2022-08-25T16:56:14;95001.34;;;29.32;36.65
46638;BME280;32365;46.938;7.390;2022-08-25T16:58:42;94998.22;;;29.26;35.87
46638;BME280;32365;46.938;7.390;2022-08-25T17:01:10;94997.22;;;29.35;35.47
46638;BME280;32365;46.938;7.390;2022-08-25T17:03:38;94996.22;;;28.96;36.29
46638;BME280;32365;46.938;7.390;2022-08-25T17:06:06;94997.34;;;28.95;37.01
46638;BME280;32365;46.938;7.390;2022-08-25T17:08:33;95004.81;;;28.86;36.30
46638;BME280;32365;46.938;7.390;2022-08-25T17:11:03;95000.50;;;28.58;37.84
46638;BME280;32365;46.938;7.390;2022-08-25T17:13:30;95003.03;;;28.31;38.05
46638;BME280;32365;46.938;7.390;2022-08-25T17:15:58;94999.53;;;28.27;37.45
46638;BME280;32365;46.938;7.390;2022-08-25T17:18:25;95001.81;;;28.25;39.05
46638;BME280;32365;46.938;7.390;2022-08-25T17:20:56;95000.44;;;28.54;38.56
46638;BME280;32365;46.938;7.390;2022-08-25T17:23:23;95004.72;;;28.39;39.16
46638;BME280;32365;46.938;7.390;2022-08-25T17:25:50;94997.31;;;28.49;39.04
46638;BME280;32365;46.938;7.390;2022-08-25T17:28:16;94993.66;;;28.18;39.56
46638;BME280;32365;46.938;7.390;2022-08-25T17:30:43;95000.50;;;27.99;40.08
46638;BME280;32365;46.938;7.390;2022-08-25T17:33:11;94998.31;;;27.85;42.09
46638;BME280;32365;46.938;7.390;2022-08-25T17:35:38;95002.16;;;27.52;42.67
46638;BME280;32365;46.938;7.390;2022-08-25T17:38:05;95003.56;;;27.14;43.70
46638;BME280;32365;46.938;7.390;2022-08-25T17:40:31;95006.72;;;27.19;42.81
46638;BME280;32365;46.938;7.390;2022-08-25T17:42:57;95008.88;;;27.14;44.96
46638;BME280;32365;46.938;7.390;2022-08-25T17:45:24;95009.66;;;27.14;44.62
46638;BME280;32365;46.938;7.390;2022-08-25T17:47:50;95009.31;;;27.00;43.69
46638;BME280;32365;46.938;7.390;2022-08-25T17:50:18;95002.00;;;26.81;44.06
46638;BME280;32365;46.938;7.390;2022-08-25T17:52:45;95006.22;;;26.53;44.42
46638;BME280;32365;46.938;7.390;2022-08-25T17:55:11;95006.56;;;26.52;43.11
46638;BME280;32365;46.938;7.390;2022-08-25T17:57:38;95010.34;;;26.51;43.54
46638;BME280;32365;46.938;7.390;2022-08-25T18:00:05;95009.13;;;26.48;43.09
46638;BME280;32365;46.938;7.390;2022-08-25T18:02:33;95006.38;;;26.45;43.43
46638;BME280;32365;46.938;7.390;2022-08-25T18:05:00;95006.72;;;26.43;44.02
46638;BME280;32365;46.938;7.390;2022-08-25T18:07:28;95013.94;;;26.30;45.77
46638;BME280;32365;46.938;7.390;2022-08-25T18:09:55;95021.59;;;26.32;45.38
46638;BME280;32365;46.938;7.390;2022-08-25T18:12:21;95021.84;;;26.14;47.18
46638;BME280;32365;46.938;7.390;2022-08-25T18:14:48;95024.75;;;25.96;48.61
46638;BME280;32365;46.938;7.390;2022-08-25T18:17:15;95025.63;;;26.01;48.27
46638;BME280;32365;46.938;7.390;2022-08-25T18:19:41;95023.00;;;25.76;47.03
46638;BME280;32365;46.938;7.390;2022-08-25T18:22:08;95024.03;;;25.59;49.11
46638;BME280;32365;46.938;7.390;2022-08-25T18:24:35;95034.06;;;25.53;48.84
46638;BME280;32365;46.938;7.390;2022-08-25T18:27:02;95031.97;;;25.46;48.87
46638;BME280;32365;46.938;7.390;2022-08-25T18:29:28;95029.75;;;25.24;49.08
46638;BME280;32365;46.938;7.390;2022-08-25T18:31:55;95034.59;;;25.34;50.09
46638;BME280;32365;46.938;7.390;2022-08-25T18:34:22;95030.84;;;25.35;49.43
46638;BME280;32365;46.938;7.390;2022-08-25T18:36:49;95037.56;;;25.08;49.52
46638;BME280;32365;46.938;7.390;2022-08-25T18:39:16;95041.41;;;24.98;50.04
46638;BME280;32365;46.938;7.390;2022-08-25T18:42:03;95037.09;;;24.93;52.14
46638;BME280;32365;46.938;7.390;2022-08-25T18:44:30;95043.81;;;24.90;51.73
46638;BME280;32365;46.938;7.390;2022-08-25T18:46:56;95034.19;;;24.52;51.53
46638;BME280;32365;46.938;7.390;2022-08-25T18:49:23;95042.03;;;24.49;52.54
46638;BME280;32365;46.938;7.390;2022-08-25T18:51:49;95045.84;;;24.39;52.22
46638;BME280;32365;46.938;7.390;2022-08-25T18:54:17;95042.34;;;24.47;52.39
46638;BME280;32365;46.938;7.390;2022-08-25T18:56:43;95046.22;;;24.50;54.47
46638;BME280;32365;46.938;7.390;2022-08-25T18:59:11;95050.09;;;24.31;54.75
46638;BME280;32365;46.938;7.390;2022-08-25T19:01:39;95055.91;;;24.24;55.00
46638;BME280;32365;46.938;7.390;2022-08-25T19:04:05;95048.09;;;24.07;56.21
46638;BME280;32365;46.938;7.390;2022-08-25T19:06:31;95052.69;;;23.97;55.59
46638;BME280;32365;46.938;7.390;2022-08-25T19:08:58;95055.47;;;23.92;56.67
46638;BME280;32365;46.938;7.390;2022-08-25T19:11:24;95053.84;;;23.79;54.63
46638;BME280;32365;46.938;7.390;2022-08-25T19:13:51;95058.03;;;23.80;56.12
46638;BME280;32365;46.938;7.390;2022-08-25T19:16:29;95057.41;;;23.83;56.22
46638;BME280;32365;46.938;7.390;2022-08-25T19:18:56;95066.44;;;23.82;56.36
46638;BME280;32365;46.938;7.390;2022-08-25T19:21:22;95071.88;;;23.77;56.84
46638;BME280;32365;46.938;7.390;2022-08-25T19:23:48;95071.97;;;23.68;57.08
46638;BME280;32365;46.938;7.390;2022-08-25T19:26:15;95069.19;;;23.86;56.75
46638;BME280;32365;46.938;7.390;2022-08-25T19:28:41;95072.91;;;23.93;56.31
46638;BME280;32365;46.938;7.390;2022-08-25T19:31:08;95069.50;;;23.93;56.59
46638;BME280;32365;46.938;7.390;2022-08-25T19:33:36;95072.28;;;23.96;55.28
46638;BME280;32365;46.938;7.390;2022-08-25T19:36:03;95071.50;;;23.96;56.73
46638;BME280;32365;46.938;7.390;2022-08-25T19:38:30;95070.47;;;24.09;56.12
46638;BME280;32365;46.938;7.390;2022-08-25T19:40:57;95073.66;;;24.24;56.12
46638;BME280;32365;46.938;7.390;2022-08-25T19:43:23;95070.09;;;24.20;55.21
46638;BME280;32365;46.938;7.390;2022-08-25T19:45:50;95073.13;;;24.09;56.46
46638;BME280;32365;46.938;7.390;2022-08-25T19:48:17;95075.47;;;24.11;54.99
46638;BME280;32365;46.938;7.390;2022-08-25T19:50:45;95079.78;;;24.16;55.41
46638;BME280;32365;46.938;7.390;2022-08-25T19:53:11;95086.41;;;24.22;54.93
46638;BME280;32365;46.938;7.390;2022-08-25T19:55:38;95080.66;;;24.20;54.35
46638;BME280;32365;46.938;7.390;2022-08-25T19:58:06;95081.59;;;24.24;54.76
46638;BME280;32365;46.938;7.390;2022-08-25T20:00:33;95082.50;;;24.28;55.85
46638;BME280;32365;46.938;7.390;2022-08-25T20:03:02;95085.84;;;24.16;54.77
